Time;durP1;ratioP1;P1;durP2;ratioP2;P2;SDS_P1;SDS_P2;PMS_P1;PMS_P2;Temp;Humidity;BMP_temperature;BMP_pressure;BME280_temperature;BME280_humidity;BME280_pressure;Samples;Min_cycle;Max_cycle;Signal;HPM_P1;HPM_P2
2022/11/10 00:02:19;;;;;;;;;;;;;;;;;;5073581;28;20002;-40
2022/11/10 00:04:45;;;;;;;;;;;;;;;;;;5073662;28;19908;-40
2022/11/10 00:07:11;;;;;;;;;;;;;;;;;;5074001;28;19946;-40
2022/11/10 00:09:37;;;;;;;;;;;;;;;;;;5073546;28;20003;-40
2022/11/10 00:12:02;;;;;;;;;;;;;;;;;;5086398;28;19911;-40
2022/11/10 00:17:13;;;;;;;;;;;;;;;;;;5093404;28;19911;-40
2022/11/10 00:19:39;;;;;;;;;;;;;;;;;;5092087;28;19907;-40
2022/11/10 00:22:05;;;;;;;;;;;;;;;;;;5093465;28;19904;-40
2022/11/10 00:24:31;;;;;;;;;;;;;;;;;;5093359;28;20263;-40
2022/11/10 00:26:57;;;;;;;;;;;;;;;;;;5077617;28;19969;-40
2022/11/10 00:29:22;;;;;;;;;;;;;;;;;;5073063;28;20325;-40
2022/11/10 00:31:48;;;;;;;;;;;;;;;;;;5073180;28;19900;-40
2022/11/10 00:34:14;;;;;;;;;;;;;;;;;;5072963;28;20375;-40
2022/11/10 00:36:40;;;;;;;;;;;;;;;;;;5073621;28;20360;-40
2022/11/10 00:39:06;;;;;;;;;;;;;;;;;;5072916;28;19905;-40
2022/11/10 00:41:32;;;;;;;;;;;;;;;;;;5084378;28;19912;-40
2022/11/10 00:43:58;;;;;;;;;;;;;;;;;;5092946;28;19904;-40
2022/11/10 00:46:24;;;;;;;;;;;;;;;;;;5093116;28;19904;-40
2022/11/10 00:48:49;;;;;;;;;;;;;;;;;;5092988;28;20315;-40
2022/11/10 00:51:15;;;;;;;;;;;;;;;;;;5090833;28;19904;-40
2022/11/10 00:53:41;;;;;;;;;;;;;;;;;;5073391;28;20437;-40
2022/11/10 06:04:12;;;;;;;;;;;;;;;;;;5073672;28;19935;-40
2022/11/10 06:06:38;;;;;;;;;;;;;;;;;;5076389;28;19908;-40
2022/11/10 06:09:03;;;;;;;;;;;;;;;;;;5092638;28;19921;-40
2022/11/10 06:11:29;;;;;;;;;;;;;;;;;;5093206;28;20355;-40
2022/11/10 06:13:55;;;;;;;;;;;;;;;;;;5092928;28;19998;-40
2022/11/10 06:16:21;;;;;;;;;;;;;;;;;;5089667;28;19908;-40
2022/11/10 06:18:47;;;;;;;;;;;;;;;;;;5093030;28;19912;-40
2022/11/10 06:21:13;;;;;;;;;;;;;;;;;;5091188;28;19908;-40
2022/11/10 06:23:39;;;;;;;;;;;;;;;;;;5092515;28;19905;-40
2022/11/10 06:26:05;;;;;;;;;;;;;;;;;;5086397;28;20435;-40
2022/11/10 06:28:31;;;;;;;;;;;;;;;;;;5089993;28;19911;-40
2022/11/10 06:30:57;;;;;;;;;;;;;;;;;;5088481;28;19969;-39
2022/11/10 06:33:23;;;;;;;;;;;;;;;;;;5078859;28;20550;-40
2022/11/10 06:35:50;;;;;;;;;;;;;;;;;;5076760;28;20007;-40
2022/11/10 06:38:16;;;;;;;;;;;;;;;;;;5087827;28;19937;-40
2022/11/10 06:40:42;;;;;;;;;;;;;;;;;;5077348;28;19908;-40
2022/11/10 06:43:08;;;;;;;;;;;;;;;;;;5068883;28;19912;-40
2022/11/10 06:45:34;;;;;;;;;;;;;;;;;;5075805;28;20068;-40
2022/11/10 06:48:02;;;;;;;3.72;2.30;;;;;;;;;;5081241;28;20526;-40
2022/11/10 06:50:28;;;;;;;3.47;2.13;;;;;;;;;;5086038;28;20541;-40
2022/11/10 06:52:55;;;;;;;2.40;2.05;;;;;;;;;;5085668;28;20020;-40
2022/11/10 06:55:21;;;;;;;4.45;1.98;;;;;;;;;;5069952;28;20147;-40
2022/11/10 06:57:47;;;;;;;5.35;2.00;;;;;;;;;;5068683;28;20104;-40
2022/11/10 07:00:15;;;;;;;2.85;1.80;;;;;;;;;;5069258;28;20024;-40
2022/11/10 07:02:41;;;;;;;3.45;1.70;;;;;;;;;;5069106;28;20492;-40
2022/11/10 07:05:07;;;;;;;2.17;1.73;;;;;;;;;;5068758;28;20040;-40
2022/11/10 07:07:33;;;;;;;1.48;1.38;;;;;;;;;;5076499;28;20391;-40
2022/11/10 07:09:59;;;;;;;2.97;1.42;;;;;;;;;;5089004;28;20379;-40
2022/11/10 07:12:25;;;;;;;2.40;1.80;;;;;;;;;;5088988;28;20472;-40
2022/11/10 07:14:51;;;;;;;3.08;1.88;;;;;;;;;;5083159;28;20111;-40
2022/11/10 07:17:17;;;;;;;1.60;1.50;;;;;;;;;;5083726;28;20491;-40
2022/11/10 07:19:43;;;;;;;2.05;1.48;;;;;;;;;;5068925;28;20708;-40
2022/11/10 07:22:09;;;;;;;1.58;1.30;;;;;;;;;;5068874;28;20029;-40
2022/11/10 07:24:35;;;;;;;1.48;1.33;;;;;;;;;;5068292;28;20024;-40
2022/11/10 07:27:01;;;;;;;1.55;1.20;;;;;;;;;;5068322;28;20024;-40
2022/11/10 07:29:27;;;;;;;1.88;1.38;;;;;;;;;;5068738;28;20906;-40
2022/11/10 07:31:53;;;;;;;1.80;1.50;;;;;;;;;;5070486;28;20104;-40
2022/11/10 07:34:20;;;;;;;2.40;1.38;;;;;;;;;;5081795;28;20031;-40
2022/11/10 07:36:46;;;;;;;1.77;1.67;;;;;;;;;;5079405;28;20018;-40
2022/11/10 07:39:13;;;;;;;1.75;1.27;;;;;;;;;;5072060;28;20028;-40
2022/11/10 07:41:39;;;;;;;1.42;1.30;;;;;;;;;;5066877;28;20120;-40
2022/11/10 07:44:06;;;;;;;1.58;1.48;;;;;;;;;;5067278;28;20108;-40
2022/11/10 07:46:33;;;;;;;2.60;1.50;;;;;;;;;;5066776;28;20036;-40
2022/11/10 07:48:59;;;;;;;2.25;1.83;;;;;;;;;;5066964;28;20102;-40
2022/11/10 07:51:25;;;;;;;2.80;1.77;;;;;;;;;;5066794;28;20024;-40
2022/11/10 07:53:51;;;;;;;3.22;1.88;;;;;;;;;;5066898;28;20017;-40
2022/11/10 07:56:17;;;;;;;2.17;1.80;;;;;;;;;;5066793;28;20095;-39
2022/11/10 07:58:43;;;;;;;6.72;2.10;;;;;;;;;;5067168;28;20108;-40
2022/11/10 08:01:09;;;;;;;3.60;1.80;;;;;;;;;;5071294;28;20056;-40
2022/11/10 08:03:35;;;;;;;2.40;1.70;;;;;;;;;;5070749;28;20483;-40
2022/11/10 08:06:01;;;;;;;2.05;1.67;;;;;;;;;;5070680;28;20036;-40
2022/11/10 08:08:28;;;;;;;2.08;1.20;;;;;;;;;;5070586;28;20649;-39
2022/11/10 08:10:56;;;;;;;1.95;1.60;;;;;;;;;;5070269;28;20055;-40
2022/11/10 08:13:22;;;;;;;1.65;1.45;;;;;;;;;;5070517;28;20028;-40
2022/11/10 08:15:48;;;;;;;2.63;1.58;;;;;;;;;;5070458;28;20086;-40
2022/11/10 08:18:17;;;;;;;2.17;1.60;;;;;;;;;;5070394;28;20032;-40
2022/11/10 08:20:43;;;;;;;2.85;1.77;;;;;;;;;;5071149;28;20039;-40
2022/11/10 08:23:09;;;;;;;2.03;1.48;;;;;;;;;;5070502;28;20024;-40
2022/11/10 08:25:36;;;;;;;3.45;1.77;;;;;;;;;;5059254;28;20570;-40
2022/11/10 08:28:03;;;;;;;2.95;1.55;;;;;;;;;;5077608;28;20024;-39
2022/11/10 08:30:30;;;;;;;1.42;1.33;;;;;;;;;;5082819;28;20086;-40
2022/11/10 08:32:57;;;;;;;2.60;1.77;;;;;;;;;;5071658;28;20074;-40
2022/11/10 08:35:26;;;;;;;2.28;1.48;;;;;;;;;;5075935;28;20439;-40
2022/11/10 08:37:53;;;;;;;1.70;1.23;;;;;;;;;;5092446;28;20032;-40
2022/11/10 08:40:19;;;;;;;2.45;1.50;;;;;;;;;;5089327;28;21555;-40
2022/11/10 08:42:46;;;;;;;2.53;1.75;;;;;;;;;;5090724;28;20025;-39
2022/11/10 08:45:12;;;;;;;1.65;1.52;;;;;;;;;;5092120;28;20035;-39
2022/11/10 08:47:38;;;;;;;4.40;1.85;;;;;;;;;;5091625;28;20055;-39
2022/11/10 08:50:05;;;;;;;1.40;1.30;;;;;;;;;;5091514;28;20024;-39
2022/11/10 08:52:31;;;;;;;1.45;1.35;;;;;;;;;;5083153;28;20098;-40
2022/11/10 08:54:57;;;;;;;1.67;1.45;;;;;;;;;;5090919;28;20039;-40
2022/11/10 08:57:23;;;;;;;2.00;1.50;;;;;;;;;;5091102;28;20028;-39
2022/11/10 08:59:49;;;;;;;1.77;1.42;;;;;;;;;;5091096;28;20020;-40
2022/11/10 09:02:15;;;;;;;2.15;1.67;;;;;;;;;;5091163;28;20422;-39
2022/11/10 09:04:41;;;;;;;1.80;1.42;;;;;;;;;;5060940;28;20033;-40
2022/11/10 09:07:08;;;;;;;1.45;1.35;;;;;;;;;;5061910;28;20040;-40
2022/11/10 09:09:34;;;;;;;2.13;1.40;;;;;;;;;;5065734;28;20095;-39
2022/11/10 09:12:00;;;;;;;3.10;1.13;;;;;;;;;;5067279;28;20029;-40
2022/11/10 09:14:26;;;;;;;2.17;1.45;;;;;;;;;;5053915;28;20036;-39
2022/11/10 09:16:52;;;;;;;1.83;1.20;;;;;;;;;;5050617;28;20791;-39
2022/11/10 09:19:18;;;;;;;1.70;1.58;;;;;;;;;;5053628;28;20480;-39
2022/11/10 09:21:44;;;;;;;1.00;1.00;;;;;;;;;;5051119;28;20476;-39
2022/11/10 09:24:10;;;;;;;2.88;1.55;;;;;;;;;;5051080;28;20480;-39
2022/11/10 09:26:36;;;;;;;1.60;1.38;;;;;;;;;;5050592;28;20537;-40
2022/11/10 09:29:02;;;;;;;1.73;1.20;;;;;;;;;;5050340;28;20021;-39
2022/11/10 09:31:28;;;;;;;1.30;1.20;;;;;;;;;;5050771;28;20025;-39
2022/11/10 09:33:54;;;;;;;1.98;1.20;;;;;;;;;;5050483;28;20025;-39
2022/11/10 09:36:20;;;;;;;1.67;1.40;;;;;;;;;;5050675;28;20021;-39
2022/11/10 09:38:46;;;;;;;1.98;1.17;;;;;;;;;;5050510;28;20387;-40
2022/11/10 09:41:13;;;;;;;2.08;1.30;;;;;;;;;;5050500;28;20025;-40
2022/11/10 09:43:42;;;;;;;1.20;1.10;;;;;;;;;;5050625;28;20056;-39
2022/11/10 09:46:23;;;;;;;1.02;1.00;;;;;;;;;;5050719;28;20095;-39
2022/11/10 09:48:54;;;;;;;1.42;1.33;;;;;;;;;;5049731;28;20619;-40
2022/11/10 09:51:25;;;;;;;2.10;1.70;;;;;;;;;;5060417;28;20036;-39
2022/11/10 09:53:55;;;;;;;1.98;1.30;;;;;;;;;;5070088;28;20434;-39
2022/11/10 09:56:27;;;;;;;1.80;1.08;;;;;;;;;;5051517;28;20048;-39
2022/11/10 09:58:53;;;;;;;1.38;1.27;;;;;;;;;;5049886;28;20040;-40
2022/11/10 10:01:38;;;;;;;2.10;1.48;;;;;;;;;;5068545;28;20635;-40
2022/11/10 10:04:07;;;;;;;1.55;1.40;;;;;;;;;;5083954;28;20050;-40
2022/11/10 10:06:39;;;;;;;1.70;1.42;;;;;;;;;;5078065;28;20029;-40
2022/11/10 10:09:18;;;;;;;1.65;1.48;;;;;;;;;;5069452;28;20474;-39
2022/11/10 10:12:10;;;;;;;1.58;1.35;;;;;;;;;;5069902;28;20040;-39
2022/11/10 10:14:47;;;;;;;1.73;1.35;;;;;;;;;;5065233;28;20037;-39
2022/11/10 10:17:18;;;;;;;2.45;1.63;;;;;;;;;;5069792;28;20652;-39
2022/11/10 10:19:44;;;;;;;1.98;1.40;;;;;;;;;;5051294;28;20526;-39
2022/11/10 10:22:16;;;;;;;2.50;1.40;;;;;;;;;;5058029;28;20037;-40
2022/11/10 10:24:42;;;;;;;2.88;2.10;;;;;;;;;;5061757;28;20484;-39
2022/11/10 10:27:11;;;;;;;4.30;2.60;;;;;;;;;;5064965;28;20025;-39
2022/11/10 10:29:39;;;;;;;3.42;2.40;;;;;;;;;;5061577;28;20516;-39
2022/11/10 10:32:08;;;;;;;3.25;2.58;;;;;;;;;;5049430;28;20596;-39
2022/11/10 10:34:35;;;;;;;2.78;1.90;;;;;;;;;;5054001;28;20083;-39
2022/11/10 10:37:01;;;;;;;2.30;1.98;;;;;;;;;;5069711;28;20407;-39
2022/11/10 10:39:43;;;;;;;2.25;1.80;;;;;;;;;;5063576;28;20028;-40
2022/11/10 10:42:15;;;;;;;1.90;1.40;;;;;;;;;;5047947;28;20036;-40
2022/11/10 10:45:02;;;;;;;1.95;1.50;;;;;;;;;;5048240;28;20071;-40
2022/11/10 10:47:37;;;;;;;1.70;1.52;;;;;;;;;;5047407;28;20025;-39
2022/11/10 10:50:15;;;;;;;2.85;1.55;;;;;;;;;;5048040;28;20021;-40
2022/11/10 10:52:41;;;;;;;2.17;1.60;;;;;;;;;;5048013;28;20025;-39
2022/11/10 10:55:08;;;;;;;2.47;1.60;;;;;;;;;;5047466;28;20516;-40
2022/11/10 10:57:34;;;;;;;2.60;1.58;;;;;;;;;;5047513;28;20459;-39
2022/11/10 11:00:30;;;;;;;3.67;2.00;;;;;;;;;;5047785;28;20025;-40
2022/11/10 11:03:01;;;;;;;2.03;1.50;;;;;;;;;;5036229;28;20041;-40
2022/11/10 11:05:27;;;;;;;2.40;1.67;;;;;;;;;;5067381;28;20403;-39
2022/11/10 11:07:56;;;;;;;1.98;1.50;;;;;;;;;;5067407;28;20036;-39
2022/11/10 11:10:26;;;;;;;1.80;1.23;;;;;;;;;;5067450;28;20023;-39
2022/11/10 11:12:52;;;;;;;2.40;1.27;;;;;;;;;;5067416;28;20096;-39
2022/11/10 11:15:27;;;;;;;2.40;1.50;;;;;;;;;;5067726;28;20112;-40
2022/11/10 11:17:54;;;;;;;1.92;1.13;;;;;;;;;;5067662;28;20029;-39
2022/11/10 11:20:25;;;;;;;2.03;1.50;;;;;;;;;;5067317;28;20035;-39
2022/11/10 11:22:56;;;;;;;2.03;1.52;;;;;;;;;;5067329;28;20036;-40
2022/11/10 11:25:23;;;;;;;1.40;1.20;;;;;;;;;;5067163;28;20484;-39
2022/11/10 11:27:55;;;;;;;1.23;1.13;;;;;;;;;;5067048;28;20407;-40
2022/11/10 11:30:22;;;;;;;1.52;1.30;;;;;;;;;;5066989;28;20028;-39
2022/11/10 11:32:48;;;;;;;1.10;1.00;;;;;;;;;;5066998;28;20474;-39
2022/11/10 11:35:35;;;;;;;1.50;1.02;;;;;;;;;;5066815;28;20028;-39
2022/11/10 11:38:02;;;;;;;2.15;1.08;;;;;;;;;;5066945;28;20028;-39
2022/11/10 11:40:39;;;;;;;1.40;1.27;;;;;;;;;;5067323;28;20028;-39
2022/11/10 11:43:17;;;;;;;1.35;1.25;;;;;;;;;;5067032;28;20032;-39
2022/11/10 11:46:06;;;;;;;2.30;1.20;;;;;;;;;;5067114;28;20507;-39
2022/11/10 11:48:44;;;;;;;0.98;0.90;;;;;;;;;;5066771;28;20020;-39
2022/11/10 11:51:26;;;;;;;1.35;0.90;;;;;;;;;;5067286;28;20079;-39
2022/11/10 11:54:15;;;;;;;0.98;0.90;;;;;;;;;;5066962;28;20021;-40
2022/11/10 11:56:43;;;;;;;1.15;1.05;;;;;;;;;;5067132;28;20035;-39
2022/11/10 11:59:27;;;;;;;0.90;0.90;;;;;;;;;;5066817;28;20033;-40
2022/11/10 12:01:53;;;;;;;;;;;;;;;;;;5067279;28;20035;-40
2022/11/10 12:04:38;;;;;;;1.10;1.00;;;;;;;;;;5066766;28;20441;-40
2022/11/10 12:07:04;;;;;;;;;;;;;;;;;;5067294;28;20031;-40
2022/11/10 12:09:43;;;;;;;0.85;0.85;;;;;;;;;;5066522;28;19908;-39
2022/11/10 12:12:11;;;;;;;1.10;0.90;;;;;;;;;;5066929;28;20104;-40
2022/11/10 12:14:53;;;;;;;1.83;0.90;;;;;;;;;;5066596;28;20028;-40
2022/11/10 12:17:39;;;;;;;1.45;1.10;;;;;;;;;;5066728;28;20111;-39
2022/11/10 12:20:17;;;;;;;1.45;1.00;;;;;;;;;;5066621;28;20427;-40
2022/11/10 12:23:03;;;;;;;0.82;0.70;;;;;;;;;;5066913;28;20538;-39
2022/11/10 12:25:48;;;;;;;1.23;1.08;;;;;;;;;;5066321;28;20031;-39
2022/11/10 12:28:21;;;;;;;0.75;0.60;;;;;;;;;;5066903;28;20032;-40
2022/11/10 12:30:50;;;;;;;0.90;0.88;;;;;;;;;;5066546;28;20029;-39
2022/11/10 12:33:35;;;;;;;0.65;0.65;;;;;;;;;;5066582;28;20491;-39
2022/11/10 12:36:05;;;;;;;1.27;0.80;;;;;;;;;;5066731;28;20028;-39
2022/11/10 12:38:39;;;;;;;0.73;0.63;;;;;;;;;;5066557;28;20107;-39
2022/11/10 12:41:08;;;;;;;0.60;0.60;;;;;;;;;;5066528;28;20083;-40
2022/11/10 12:43:38;;;;;;;1.00;0.85;;;;;;;;;;5067035;28;20107;-39
2022/11/10 12:46:13;;;;;;;0.70;0.70;;;;;;;;;;5067152;28;20116;-40
2022/11/10 12:48:48;;;;;;;0.70;0.70;;;;;;;;;;5070191;28;20112;-39
2022/11/10 12:51:24;;;;;;;1.25;0.77;;;;;;;;;;5070013;28;20420;-39
2022/11/10 12:53:51;;;;;;;0.88;0.60;;;;;;;;;;5070117;28;20446;-39
2022/11/10 12:56:17;;;;;;;0.55;0.55;;;;;;;;;;5069935;28;20032;-40
2022/11/10 12:58:43;;;;;;;1.10;0.68;;;;;;;;;;5070248;28;20691;-40
2022/11/10 13:01:15;;;;;;;1.05;0.70;;;;;;;;;;5070134;28;20024;-39
2022/11/10 13:03:52;;;;;;;0.60;0.57;;;;;;;;;;5070083;28;20056;-40
2022/11/10 13:06:26;;;;;;;0.60;0.50;;;;;;;;;;5069736;28;20028;-39
2022/11/10 13:08:52;;;;;;;0.95;0.70;;;;;;;;;;5069380;28;20325;-39
2022/11/10 13:11:23;;;;;;;0.40;0.40;;;;;;;;;;5069528;28;20442;-39
2022/11/10 13:13:54;;;;;;;1.40;0.90;;;;;;;;;;5069552;28;20406;-39
2022/11/10 13:16:41;;;;;;;1.50;0.70;;;;;;;;;;5069479;28;20034;-39
2022/11/10 13:19:11;;;;;;;0.95;0.55;;;;;;;;;;5073761;28;20518;-39
2022/11/10 13:21:52;;;;;;;0.80;0.60;;;;;;;;;;5083353;28;20102;-40
2022/11/10 13:24:20;;;;;;;1.83;0.60;;;;;;;;;;5082060;28;20032;-39
2022/11/10 13:26:51;;;;;;;0.60;0.60;;;;;;;;;;5080612;28;20044;-39
2022/11/10 13:29:33;;;;;;;0.80;0.40;;;;;;;;;;5070546;28;20023;-40
2022/11/10 13:32:14;;;;;;;0.60;0.60;;;;;;;;;;5073820;28;20039;-40
2022/11/10 13:34:46;;;;;;;0.93;0.50;;;;;;;;;;5069330;28;20025;-39
2022/11/10 13:37:32;;;;;;;1.17;0.60;;;;;;;;;;5072977;28;20030;-39
2022/11/10 13:40:19;;;;;;;0.77;0.50;;;;;;;;;;5086043;28;20521;-39
2022/11/10 13:42:57;;;;;;;0.65;0.65;;;;;;;;;;5069264;28;20028;-39
2022/11/10 13:45:31;;;;;;;0.60;0.60;;;;;;;;;;5069104;28;20190;-39
2022/11/10 13:48:05;;;;;;;1.25;0.70;;;;;;;;;;5068907;28;20510;-40
2022/11/10 13:50:40;;;;;;;0.88;0.85;;;;;;;;;;5068961;28;20029;-39
2022/11/10 13:53:24;;;;;;;1.27;0.60;;;;;;;;;;5068940;28;20430;-40
2022/11/10 13:56:08;;;;;;;1.00;0.47;;;;;;;;;;5069134;28;20020;-39
2022/11/10 13:58:35;;;;;;;;;;;;;;;;;;5069374;28;20028;-39
2022/11/10 14:01:16;;;;;;;1.05;0.50;;;;;;;;;;5068586;28;20438;-39
2022/11/10 14:03:46;;;;;;;1.08;0.63;;;;;;;;;;5069001;28;20028;-40
2022/11/10 14:06:17;;;;;;;0.55;0.40;;;;;;;;;;5068747;28;20052;-40
2022/11/10 14:08:56;;;;;;;2.15;0.50;;;;;;;;;;5068531;28;20020;-39
2022/11/10 14:11:25;;;;;;;0.52;0.52;;;;;;;;;;5068705;28;20306;-40
2022/11/10 14:13:56;;;;;;;0.73;0.50;;;;;;;;;;5068665;28;20244;-40
2022/11/10 14:16:25;;;;;;;0.80;0.80;;;;;;;;;;5068392;28;20029;-40
2022/11/10 14:19:18;;;;;;;1.33;0.80;;;;;;;;;;5050072;28;20384;-39
2022/11/10 14:21:49;;;;;;;1.73;1.10;;;;;;;;;;5030365;28;20531;-40
2022/11/10 14:24:24;;;;;;;1.70;0.80;;;;;;;;;;5068149;28;20067;-39
2022/11/10 14:26:54;;;;;;;0.95;0.80;;;;;;;;;;5068155;28;20029;-39
2022/11/10 14:29:28;;;;;;;1.73;0.85;;;;;;;;;;5068098;28;20100;-39
2022/11/10 14:31:54;;;;;;;0.95;0.50;;;;;;;;;;5068025;28;20024;-39
2022/11/10 14:34:22;;;;;;;0.47;0.47;;;;;;;;;;5068442;28;20031;-39
2022/11/10 14:36:52;;;;;;;1.08;0.90;;;;;;;;;;5068033;28;20090;-39
2022/11/10 14:39:21;;;;;;;0.60;0.60;;;;;;;;;;5049521;28;20036;-39
2022/11/10 14:41:49;;;;;;;0.82;0.70;;;;;;;;;;5067617;28;20530;-39
2022/11/10 14:44:21;;;;;;;0.85;0.68;;;;;;;;;;5068003;28;20063;-40
2022/11/10 14:46:47;;;;;;;1.08;0.75;;;;;;;;;;5067793;28;20047;-40
2022/11/10 14:49:13;;;;;;;0.95;0.60;;;;;;;;;;5067962;28;20031;-39
2022/11/10 14:51:39;;;;;;;2.05;0.80;;;;;;;;;;5067776;28;20020;-40
2022/11/10 14:54:06;;;;;;;0.98;0.57;;;;;;;;;;5067483;28;20505;-40
2022/11/10 14:56:35;;;;;;;0.50;0.50;;;;;;;;;;5067650;28;20099;-40
2022/11/10 14:59:02;;;;;;;1.13;0.80;;;;;;;;;;5067725;28;20024;-39
2022/11/10 15:01:43;;;;;;;0.98;0.70;;;;;;;;;;5067352;28;20451;-39
2022/11/10 15:04:11;;;;;;;1.42;0.60;;;;;;;;;;5067825;28;20167;-40
2022/11/10 15:06:37;;;;;;;1.15;1.05;;;;;;;;;;5067207;28;20036;-40
2022/11/10 15:09:14;;;;;;;0.60;0.60;;;;;;;;;;5066720;28;20028;-39
2022/11/10 15:11:40;;;;;;;1.00;0.90;;;;;;;;;;5067501;28;20021;-39
2022/11/10 15:14:24;;;;;;;1.13;0.88;;;;;;;;;;5067304;28;20139;-40
2022/11/10 15:17:04;;;;;;;2.25;1.25;;;;;;;;;;5067369;28;20024;-40
2022/11/10 15:19:30;;;;;;;1.08;0.95;;;;;;;;;;5067357;28;20048;-39
2022/11/10 15:22:04;;;;;;;2.08;0.82;;;;;;;;;;5067357;28;20083;-39
2022/11/10 15:24:30;;;;;;;2.10;0.75;;;;;;;;;;5067212;28;20029;-39
2022/11/10 15:26:57;;;;;;;0.57;0.57;;;;;;;;;;5067196;28;20103;-39
2022/11/10 15:29:25;;;;;;;1.17;1.00;;;;;;;;;;5067270;28;20055;-39
2022/11/10 15:31:51;;;;;;;1.05;0.60;;;;;;;;;;5067125;28;20096;-40
2022/11/10 15:34:30;;;;;;;0.60;0.60;;;;;;;;;;5067103;28;20056;-39
2022/11/10 15:37:10;;;;;;;1.63;0.80;;;;;;;;;;5066871;28;20036;-39
2022/11/10 15:39:36;;;;;;;2.15;1.23;;;;;;;;;;5067366;28;20163;-39
2022/11/10 15:42:11;;;;;;;0.75;0.75;;;;;;;;;;5070020;28;20376;-39
2022/11/10 15:44:38;;;;;;;1.55;1.00;;;;;;;;;;5085662;28;20043;-39
2022/11/10 15:47:04;;;;;;;1.38;0.90;;;;;;;;;;5083203;28;20063;-39
2022/11/10 15:49:32;;;;;;;0.85;0.60;;;;;;;;;;5075896;28;20029;-39
2022/11/10 15:52:00;;;;;;;1.00;0.75;;;;;;;;;;5078247;28;20016;-40
2022/11/10 15:54:28;;;;;;;2.42;1.10;;;;;;;;;;5068471;28;20054;-40
2022/11/10 15:56:54;;;;;;;2.85;1.13;;;;;;;;;;5067959;28;20038;-39
2022/11/10 15:59:20;;;;;;;1.08;0.98;;;;;;;;;;5066642;28;20087;-39
2022/11/10 16:01:48;;;;;;;0.80;0.80;;;;;;;;;;5066813;28;20024;-40
2022/11/10 16:04:15;;;;;;;1.38;0.75;;;;;;;;;;5067292;28;20059;-40
2022/11/10 16:06:41;;;;;;;1.48;1.05;;;;;;;;;;5066757;28;20495;-40
2022/11/10 16:09:07;;;;;;;1.85;0.90;;;;;;;;;;5066725;28;20086;-39
2022/11/10 16:11:34;;;;;;;1.42;1.00;;;;;;;;;;5066568;28;20025;-40
2022/11/10 16:14:04;;;;;;;1.75;1.20;;;;;;;;;;5066799;28;20025;-39
2022/11/10 16:16:31;;;;;;;1.05;0.88;;;;;;;;;;5066618;28;20025;-39
2022/11/10 16:18:58;;;;;;;0.88;0.80;;;;;;;;;;5066520;28;20033;-40
2022/11/10 16:21:24;;;;;;;0.95;0.80;;;;;;;;;;5069253;28;20029;-39
2022/11/10 16:23:51;;;;;;;1.15;1.05;;;;;;;;;;5070491;28;20036;-39
2022/11/10 16:26:20;;;;;;;1.38;0.98;;;;;;;;;;5070741;28;20032;-39
2022/11/10 16:28:47;;;;;;;1.02;0.93;;;;;;;;;;5070223;28;20016;-39
2022/11/10 16:31:14;;;;;;;1.83;1.00;;;;;;;;;;5070614;28;20020;-39
2022/11/10 16:33:41;;;;;;;0.80;0.80;;;;;;;;;;5070411;28;20025;-39
2022/11/10 16:36:11;;;;;;;2.30;1.10;;;;;;;;;;5070024;28;20025;-39
2022/11/10 16:38:37;;;;;;;1.70;1.10;;;;;;;;;;5070194;28;20416;-39
2022/11/10 16:41:03;;;;;;;1.52;0.98;;;;;;;;;;5070162;28;20031;-40
2022/11/10 16:43:30;;;;;;;1.63;1.17;;;;;;;;;;5070020;28;20411;-39
2022/11/10 16:46:01;;;;;;;2.10;1.17;;;;;;;;;;5070002;28;20352;-40
2022/11/10 16:48:28;;;;;;;0.85;0.85;;;;;;;;;;5069610;28;20031;-40
2022/11/10 16:50:56;;;;;;;2.30;1.10;;;;;;;;;;5069995;28;20043;-39
2022/11/10 16:53:24;;;;;;;2.58;1.08;;;;;;;;;;5069912;28;20028;-39
2022/11/10 16:55:50;;;;;;;1.88;1.25;;;;;;;;;;5070033;28;20017;-40
2022/11/10 16:58:17;;;;;;;1.10;0.85;;;;;;;;;;5069757;28;20025;-40
2022/11/10 17:00:43;;;;;;;1.42;1.00;;;;;;;;;;5052032;28;20542;-39
2022/11/10 17:03:19;;;;;;;1.23;1.13;;;;;;;;;;5069809;28;20056;-39
2022/11/10 17:05:45;;;;;;;1.27;1.08;;;;;;;;;;5069913;28;20103;-39
2022/11/10 17:08:19;;;;;;;1.38;0.90;;;;;;;;;;5069903;28;20024;-39
2022/11/10 17:10:45;;;;;;;1.20;0.80;;;;;;;;;;5069846;28;20451;-39
2022/11/10 17:13:11;;;;;;;1.10;1.00;;;;;;;;;;5069951;28;20025;-39
2022/11/10 17:15:37;;;;;;;2.15;1.20;;;;;;;;;;5069512;28;20032;-39
2022/11/10 17:18:05;;;;;;;1.13;1.10;;;;;;;;;;5069219;28;20036;-39
2022/11/10 17:20:40;;;;;;;1.60;1.08;;;;;;;;;;5069287;28;20024;-39
2022/11/10 17:23:06;;;;;;;1.27;1.10;;;;;;;;;;5069346;28;20040;-40
2022/11/10 17:25:33;;;;;;;2.30;1.10;;;;;;;;;;5069230;28;20021;-39
2022/11/10 17:28:01;;;;;;;1.65;1.30;;;;;;;;;;5069130;28;20024;-39
2022/11/10 17:30:27;;;;;;;1.73;1.30;;;;;;;;;;5069592;28;20059;-39
2022/11/10 17:32:54;;;;;;;1.30;1.00;;;;;;;;;;5068361;28;20020;-39
2022/11/10 17:35:21;;;;;;;1.40;1.00;;;;;;;;;;5068969;28;20023;-39
2022/11/10 17:37:49;;;;;;;1.60;1.17;;;;;;;;;;5068846;28;20090;-39
2022/11/10 17:40:22;;;;;;;1.20;1.10;;;;;;;;;;5069270;28;20032;-39
2022/11/10 17:42:48;;;;;;;1.33;1.02;;;;;;;;;;5068955;28;20028;-40
2022/11/10 17:45:22;;;;;;;1.10;0.95;;;;;;;;;;5068943;28;20456;-39
2022/11/10 17:47:49;;;;;;;1.27;0.93;;;;;;;;;;5068647;28;20400;-39
2022/11/10 17:50:18;;;;;;;1.27;1.15;;;;;;;;;;5068716;28;20500;-40
2022/11/10 17:52:45;;;;;;;1.83;1.63;;;;;;;;;;5068720;28;20431;-39
2022/11/10 17:55:16;;;;;;;1.88;1.52;;;;;;;;;;5069174;28;20108;-39
2022/11/10 17:57:43;;;;;;;1.83;1.58;;;;;;;;;;5077289;28;20024;-39
2022/11/10 18:00:09;;;;;;;2.15;1.88;;;;;;;;;;5087455;28;20036;-39
2022/11/10 18:02:35;;;;;;;1.95;1.58;;;;;;;;;;5076243;28;20462;-39
2022/11/10 18:05:04;;;;;;;2.15;1.50;;;;;;;;;;5066590;28;20029;-39
2022/11/10 18:07:30;;;;;;;1.42;1.30;;;;;;;;;;5066716;28;20020;-39
2022/11/10 18:09:57;;;;;;;1.42;1.23;;;;;;;;;;5067019;28;20024;-39
2022/11/10 18:12:23;;;;;;;2.33;1.30;;;;;;;;;;5067206;28;20032;-39
2022/11/10 18:14:49;;;;;;;4.03;2.38;;;;;;;;;;5067073;28;20025;-39
2022/11/10 18:17:15;;;;;;;5.07;2.65;;;;;;;;;;5066639;28;20032;-40
2022/11/10 18:19:41;;;;;;;3.90;2.38;;;;;;;;;;5066501;28;20421;-39
2022/11/10 18:22:08;;;;;;;3.80;2.58;;;;;;;;;;5068849;28;20032;-40
2022/11/10 18:24:34;;;;;;;4.90;2.42;;;;;;;;;;5072683;28;20052;-39
2022/11/10 18:27:01;;;;;;;4.85;2.67;;;;;;;;;;5067857;28;20423;-39
2022/11/10 18:29:27;;;;;;;6.28;2.67;;;;;;;;;;5067730;28;20020;-39
2022/11/10 18:31:53;;;;;;;7.60;3.72;;;;;;;;;;5075244;28;20163;-40
2022/11/10 18:34:19;;;;;;;7.10;3.67;;;;;;;;;;5074206;28;20099;-40
2022/11/10 18:36:45;;;;;;;5.63;2.88;;;;;;;;;;5096277;28;20851;-40
2022/11/10 18:39:11;;;;;;;4.78;2.70;;;;;;;;;;5076080;28;20537;-40
2022/11/10 18:41:49;;;;;;;4.78;2.63;;;;;;;;;;5107080;28;20032;-40
2022/11/10 18:44:16;;;;;;;4.57;2.55;;;;;;;;;;5095432;28;20567;-40
2022/11/10 18:46:43;;;;;;;3.88;2.25;;;;;;;;;;5069573;28;20056;-40
2022/11/10 18:49:10;;;;;;;4.25;2.33;;;;;;;;;;5048592;28;20086;-40
2022/11/10 18:51:36;;;;;;;6.38;2.70;;;;;;;;;;5077337;28;20041;-40
2022/11/10 18:54:03;;;;;;;6.10;2.70;;;;;;;;;;5081421;28;20021;-40
2022/11/10 18:56:29;;;;;;;5.25;2.63;;;;;;;;;;5078232;28;20579;-40
2022/11/10 18:58:55;;;;;;;6.40;2.63;;;;;;;;;;5082345;28;20112;-40
2022/11/10 19:01:21;;;;;;;3.88;2.22;;;;;;;;;;5084331;28;20039;-40
2022/11/10 19:03:48;;;;;;;3.22;2.08;;;;;;;;;;5084287;28;20111;-40
2022/11/10 19:06:14;;;;;;;3.67;1.83;;;;;;;;;;5085343;28;20372;-40
2022/11/10 19:08:40;;;;;;;3.25;2.30;;;;;;;;;;5071953;28;20050;-40
2022/11/10 19:11:07;;;;;;;4.43;2.10;;;;;;;;;;5064597;28;20035;-41
2022/11/10 19:13:33;;;;;;;3.45;2.03;;;;;;;;;;5083856;28;20036;-40
2022/11/10 19:16:03;;;;;;;5.13;3.30;;;;;;;;;;5081359;28;20067;-40
2022/11/10 19:18:29;;;;;;;5.45;3.75;;;;;;;;;;5077116;28;20025;-40
2022/11/10 19:20:55;;;;;;;5.30;3.78;;;;;;;;;;5084432;28;20357;-40
2022/11/10 19:23:21;;;;;;;5.57;4.40;;;;;;;;;;5063106;28;20039;-40
2022/11/10 19:25:47;;;;;;;4.93;3.70;;;;;;;;;;5079767;28;20028;-40
2022/11/10 19:28:13;;;;;;;7.55;5.45;;;;;;;;;;5082928;28;20491;-40
2022/11/10 19:30:39;;;;;;;9.77;6.25;;;;;;;;;;5076081;28;20529;-40
2022/11/10 19:33:05;;;;;;;8.65;6.22;;;;;;;;;;5079862;28;20098;-40
2022/11/10 19:35:32;;;;;;;8.93;5.60;;;;;;;;;;5080730;28;20103;-40
2022/11/10 19:37:58;;;;;;;6.60;4.70;;;;;;;;;;5081541;28;20024;-40
2022/11/10 19:40:24;;;;;;;5.25;4.10;;;;;;;;;;5089204;28;20035;-40
2022/11/10 19:42:50;;;;;;;5.28;3.97;;;;;;;;;;5065343;28;20055;-40
2022/11/10 19:45:16;;;;;;;5.25;3.70;;;;;;;;;;5072941;28;20039;-40
2022/11/10 19:47:42;;;;;;;4.57;3.35;;;;;;;;;;5076670;28;20028;-40
2022/11/10 19:50:08;;;;;;;4.05;3.10;;;;;;;;;;5081005;28;20099;-40
2022/11/10 19:52:34;;;;;;;3.42;2.58;;;;;;;;;;5073158;28;20580;-40
2022/11/10 19:55:00;;;;;;;3.53;2.80;;;;;;;;;;5084686;28;20042;-40
2022/11/10 19:57:27;;;;;;;3.30;2.63;;;;;;;;;;5091621;28;20032;-40
2022/11/10 19:59:53;;;;;;;2.28;2.08;;;;;;;;;;5084044;28;20030;-41
2022/11/10 20:02:19;;;;;;;3.55;2.30;;;;;;;;;;5098690;28;20089;-40
2022/11/10 20:10:14;;;;;;;;;;;;;;;;;;5085970;28;20445;-41
2022/11/10 20:12:40;;;;;;;4.00;2.97;;;;;;;;;;5085473;28;19908;-40
2022/11/10 20:15:06;;;;;;;3.42;2.53;;;;;;;;;;5083010;28;20064;-40
2022/11/10 20:17:32;;;;;;;5.10;3.40;;;;;;;;;;5088062;28;20030;-40
2022/11/10 20:19:58;;;;;;;5.55;3.53;;;;;;;;;;5079628;28;20103;-40
2022/11/10 20:22:24;;;;;;;4.70;2.90;;;;;;;;;;5089768;28;20115;-40
2022/11/10 20:24:50;;;;;;;3.13;2.83;;;;;;;;;;5084712;28;20035;-40